Hettinger, North Dakota
Current Conditions -  °F | °C
As of 6:53 AM on Saturday 25 Oct 2014 (Local Time) from KHEI Reporting Station
Clear Clear  
Wind Chill: 30°   Ceiling: Unl
Heat Index: 30°   Visibility: 10mi
Dew Point: 25°   Wind: 3mph
Humidity: 82%   Direction: 260°W
Pressure: 30.16"   Gusts: NA
Location:  46°N, 102.64°W
Report Text: KHEI 251253Z AUTO 26003KT 10SM CLR M01/M04 A3016 RMK AO2 SLP228 T10111039
Loading
Personal Weather Stations






























Interactive Weather Map
Tropical Storm Tracking
New forecast layout! Learn more

10-Day Weather Forecast

Advertisements
Track Severe Weather on mobile